createdAt,value
2018-10-16T00:00:55.180Z,16.30
2018-10-16T00:01:59.303Z,16.30
2018-10-16T00:03:03.762Z,16.30
2018-10-16T00:04:07.825Z,16.30
2018-10-16T00:05:11.946Z,16.30
2018-10-16T00:06:16.032Z,16.30
2018-10-16T00:07:20.285Z,16.20
2018-10-16T00:08:24.442Z,16.20
2018-10-16T00:09:28.664Z,16.20
2018-10-16T00:10:38.828Z,16.10
2018-10-16T00:11:54.381Z,16.10
2018-10-16T00:12:58.517Z,16.00
2018-10-16T00:14:02.622Z,16.00
2018-10-16T00:15:07.984Z,16.00
2018-10-16T00:16:12.102Z,15.90
2018-10-16T00:17:16.257Z,15.90
2018-10-16T00:18:20.360Z,15.90
2018-10-16T00:19:24.610Z,15.90
2018-10-16T00:20:28.653Z,15.90
2018-10-16T00:21:32.782Z,15.90
2018-10-16T00:22:36.936Z,15.80
2018-10-16T00:23:41.056Z,15.80
2018-10-16T00:24:45.200Z,15.80
2018-10-16T00:25:49.348Z,15.80
2018-10-16T00:26:54.166Z,15.80
2018-10-16T00:27:58.202Z,15.70
2018-10-16T00:29:02.299Z,15.70
2018-10-16T00:30:06.502Z,15.70
2018-10-16T00:31:10.740Z,15.70
2018-10-16T00:32:14.899Z,15.70
2018-10-16T00:33:18.955Z,15.70
2018-10-16T00:34:23.064Z,15.60
2018-10-16T00:35:27.151Z,15.60
2018-10-16T00:36:31.287Z,15.60
2018-10-16T00:37:35.408Z,15.60
2018-10-16T00:38:39.497Z,15.60
2018-10-16T00:39:43.612Z,15.50
2018-10-16T00:40:47.780Z,15.50
2018-10-16T00:41:56.823Z,15.50
2018-10-16T00:43:00.869Z,15.50
2018-10-16T00:44:05.552Z,15.50
2018-10-16T00:45:10.671Z,15.50
2018-10-16T00:46:14.798Z,15.50
2018-10-16T00:47:18.936Z,15.50
2018-10-16T00:48:22.986Z,15.50
2018-10-16T00:49:27.243Z,15.50
2018-10-16T00:50:31.320Z,15.50
2018-10-16T00:51:35.791Z,15.50
2018-10-16T00:52:40.227Z,15.50
2018-10-16T00:53:44.342Z,15.50
2018-10-16T00:54:48.527Z,15.50
2018-10-16T00:55:52.697Z,15.60
2018-10-16T00:56:56.749Z,15.50
2018-10-16T00:58:00.922Z,15.50
2018-10-16T00:59:05.135Z,15.50
2018-10-16T01:00:10.769Z,15.50
2018-10-16T01:01:18.180Z,15.50
2018-10-16T01:02:22.316Z,15.50
2018-10-16T01:03:26.476Z,15.50
2018-10-16T01:04:30.536Z,15.50
2018-10-16T01:05:34.752Z,15.50
2018-10-16T01:06:38.916Z,15.50
2018-10-16T01:07:43.400Z,15.50
2018-10-16T01:08:47.480Z,15.50
2018-10-16T01:09:51.716Z,15.50
2018-10-16T01:10:55.784Z,15.50
2018-10-16T01:12:00.040Z,15.50
2018-10-16T01:13:04.085Z,15.50
2018-10-16T01:14:08.320Z,15.50
2018-10-16T01:15:12.734Z,15.60
2018-10-16T01:16:16.829Z,15.60
2018-10-16T01:17:20.984Z,15.60
2018-10-16T01:18:25.053Z,15.60
2018-10-16T01:19:29.284Z,15.60
2018-10-16T01:20:33.421Z,15.60
2018-10-16T01:21:37.611Z,15.60
2018-10-16T01:22:42.067Z,15.70
2018-10-16T01:23:46.150Z,15.70
2018-10-16T01:24:50.288Z,15.70
2018-10-16T01:25:54.451Z,15.70
2018-10-16T01:26:58.540Z,15.70
2018-10-16T01:28:02.624Z,15.70
2018-10-16T01:29:06.750Z,15.70
2018-10-16T01:30:10.946Z,15.70
2018-10-16T01:31:15.056Z,15.70
2018-10-16T01:32:25.650Z,15.70
2018-10-16T01:33:29.714Z,15.70
2018-10-16T01:34:39.800Z,15.70
2018-10-16T01:35:49.842Z,15.70
2018-10-16T01:37:00.019Z,15.70
2018-10-16T01:38:04.220Z,15.70
2018-10-16T01:39:08.558Z,15.70
2018-10-16T01:40:12.589Z,15.70
2018-10-16T01:41:16.706Z,15.60
2018-10-16T01:42:20.776Z,15.70
2018-10-16T01:43:25.018Z,15.70
2018-10-16T01:44:29.076Z,15.60
2018-10-16T01:45:33.282Z,15.60
2018-10-16T01:46:37.384Z,15.60
2018-10-16T01:47:41.480Z,15.60
2018-10-16T01:48:45.552Z,15.60
2018-10-16T01:49:49.636Z,15.60
2018-10-16T01:50:53.727Z,15.60
2018-10-16T01:51:57.849Z,15.60
2018-10-16T01:53:01.978Z,15.60
2018-10-16T01:54:12.620Z,15.60
2018-10-16T01:55:16.701Z,15.60
2018-10-16T01:56:20.817Z,15.60
2018-10-16T01:57:25.127Z,15.60
2018-10-16T01:58:29.149Z,15.50
2018-10-16T01:59:33.177Z,15.60
2018-10-16T02:00:37.368Z,15.60
2018-10-16T02:01:41.533Z,15.60
2018-10-16T02:02:45.669Z,15.50
2018-10-16T02:03:49.636Z,15.60
2018-10-16T02:04:53.742Z,15.50
2018-10-16T02:05:57.874Z,15.50
2018-10-16T02:07:02.004Z,15.50
2018-10-16T02:08:06.716Z,15.50
2018-10-16T02:09:11.984Z,15.50
2018-10-16T02:10:15.985Z,15.50
2018-10-16T02:11:26.647Z,15.50
2018-10-16T02:12:30.734Z,15.50
2018-10-16T02:13:34.962Z,15.50
2018-10-16T02:14:39.111Z,15.50
2018-10-16T02:15:43.220Z,15.50
2018-10-16T02:16:47.436Z,15.50
2018-10-16T02:17:51.531Z,15.50
2018-10-16T02:18:55.694Z,15.50
2018-10-16T02:19:59.762Z,15.50
2018-10-16T02:21:03.802Z,15.50
2018-10-16T02:22:08.090Z,15.50
2018-10-16T02:23:12.105Z,15.50
2018-10-16T02:24:16.109Z,15.50
2018-10-16T02:25:20.230Z,15.50
2018-10-16T02:26:24.351Z,15.50
2018-10-16T02:27:28.425Z,15.40
2018-10-16T02:28:32.556Z,15.50
2018-10-16T02:29:36.695Z,15.50
2018-10-16T02:30:40.781Z,15.40
2018-10-16T02:31:44.912Z,15.40
2018-10-16T02:32:49.003Z,15.40
2018-10-16T02:33:53.120Z,15.30
2018-10-16T02:34:57.215Z,15.30
2018-10-16T02:36:01.359Z,15.30
2018-10-16T02:37:06.174Z,15.30
2018-10-16T02:38:10.228Z,15.20
2018-10-16T02:39:14.353Z,15.20
2018-10-16T02:40:18.462Z,15.10
2018-10-16T02:41:22.563Z,15.10
2018-10-16T02:42:26.764Z,15.10
2018-10-16T02:43:30.850Z,15.10
2018-10-16T02:44:34.968Z,15.00
2018-10-16T02:45:39.054Z,15.00
2018-10-16T02:46:43.207Z,15.00
2018-10-16T02:47:47.226Z,15.00
2018-10-16T02:48:51.345Z,15.00
2018-10-16T02:49:55.412Z,14.90
2018-10-16T02:50:59.529Z,14.90
2018-10-16T02:52:03.724Z,14.90
2018-10-16T02:53:07.819Z,14.90
2018-10-16T02:54:11.998Z,14.90
2018-10-16T02:55:16.100Z,14.90
2018-10-16T02:56:20.191Z,14.80
2018-10-16T02:57:24.359Z,14.80
2018-10-16T02:58:28.530Z,14.80
2018-10-16T02:59:32.640Z,14.80
2018-10-16T03:00:36.744Z,14.80
2018-10-16T03:01:40.801Z,14.80
2018-10-16T03:02:51.532Z,14.80
2018-10-16T03:03:56.460Z,14.80
2018-10-16T03:05:00.592Z,14.80
2018-10-16T03:06:04.736Z,14.80
2018-10-16T03:07:08.781Z,14.80
2018-10-16T03:08:12.839Z,14.80
2018-10-16T03:09:16.950Z,14.80
2018-10-16T03:10:21.144Z,14.80
2018-10-16T03:11:25.226Z,14.80
2018-10-16T03:12:29.271Z,14.80
2018-10-16T03:13:33.416Z,14.80
2018-10-16T03:14:37.514Z,14.80
2018-10-16T03:15:41.742Z,14.80
2018-10-16T03:16:45.858Z,14.80
2018-10-16T03:17:49.890Z,14.80
2018-10-16T03:18:53.898Z,14.80
2018-10-16T03:19:57.986Z,14.80
2018-10-16T03:21:02.108Z,14.80
2018-10-16T03:22:06.507Z,14.80
2018-10-16T03:23:10.643Z,14.80
2018-10-16T03:24:14.796Z,14.80
2018-10-16T03:25:18.914Z,14.80
2018-10-16T03:26:23.060Z,14.80
2018-10-16T03:27:27.197Z,14.80
2018-10-16T03:28:31.344Z,14.80
2018-10-16T03:29:35.389Z,14.80
2018-10-16T03:30:39.608Z,14.80
2018-10-16T03:31:43.745Z,14.80
2018-10-16T03:32:47.794Z,14.80
2018-10-16T03:33:51.882Z,14.80
2018-10-16T03:34:56.060Z,14.80
2018-10-16T03:36:00.214Z,14.80
2018-10-16T03:37:04.292Z,14.80
2018-10-16T03:38:08.362Z,14.80
2018-10-16T03:39:13.099Z,14.80
2018-10-16T03:40:17.217Z,14.80
2018-10-16T03:41:21.367Z,14.80
2018-10-16T03:42:25.480Z,14.80
2018-10-16T03:43:29.637Z,14.80
2018-10-16T03:44:33.720Z,14.80
2018-10-16T03:45:37.925Z,14.80
2018-10-16T03:46:42.067Z,14.80
2018-10-16T03:47:46.286Z,14.80
2018-10-16T03:48:50.268Z,14.80
2018-10-16T03:49:54.440Z,14.80
2018-10-16T03:50:58.756Z,14.80
2018-10-16T03:52:02.772Z,14.80
2018-10-16T03:53:06.864Z,14.80
2018-10-16T03:54:10.996Z,14.80
2018-10-16T03:55:15.137Z,14.70
2018-10-16T03:56:19.355Z,14.70
2018-10-16T03:57:23.477Z,14.70
2018-10-16T03:58:27.553Z,14.70
2018-10-16T03:59:31.717Z,14.70
2018-10-16T04:00:35.739Z,14.60
2018-10-16T04:01:39.839Z,14.60
2018-10-16T04:02:43.958Z,14.60
2018-10-16T04:03:48.548Z,14.60
2018-10-16T04:04:52.856Z,14.60
2018-10-16T04:05:57.157Z,14.60
2018-10-16T04:07:01.176Z,14.60
2018-10-16T04:08:05.467Z,14.50
2018-10-16T04:09:09.553Z,14.50
2018-10-16T04:10:13.756Z,14.50
2018-10-16T04:11:18.169Z,14.50
2018-10-16T04:12:22.251Z,14.50
2018-10-16T04:13:26.326Z,14.50
2018-10-16T04:14:30.493Z,14.50
2018-10-16T04:15:34.837Z,14.50
2018-10-16T04:16:38.880Z,14.50
2018-10-16T04:17:43.066Z,14.50
2018-10-16T04:18:47.212Z,14.50
2018-10-16T04:19:51.667Z,14.50
2018-10-16T04:20:55.732Z,14.50
2018-10-16T04:21:59.825Z,14.50
2018-10-16T04:23:03.978Z,14.50
2018-10-16T04:24:08.052Z,14.50
2018-10-16T04:25:12.169Z,14.50
2018-10-16T04:26:16.224Z,14.50
2018-10-16T04:27:20.392Z,14.50
2018-10-16T04:28:24.496Z,14.50
2018-10-16T04:29:28.913Z,14.50
2018-10-16T04:30:33.013Z,14.50
2018-10-16T04:31:37.113Z,14.50
2018-10-16T04:32:41.190Z,14.50
2018-10-16T04:33:45.381Z,14.50
2018-10-16T04:34:49.448Z,14.50
2018-10-16T04:35:53.593Z,14.50
2018-10-16T04:36:57.694Z,14.50
2018-10-16T04:38:01.899Z,14.50
2018-10-16T04:39:11.053Z,14.50
2018-10-16T04:40:15.328Z,14.50
2018-10-16T04:41:19.382Z,14.50
2018-10-16T04:42:23.557Z,14.50
2018-10-16T04:43:27.595Z,14.50
2018-10-16T04:44:31.783Z,14.50
2018-10-16T04:45:35.934Z,14.50
2018-10-16T04:46:39.983Z,14.50
2018-10-16T04:47:44.048Z,14.50
2018-10-16T04:48:48.253Z,14.50
2018-10-16T04:49:52.358Z,14.50
2018-10-16T04:50:56.461Z,14.50
2018-10-16T04:52:00.555Z,14.50
2018-10-16T04:53:04.639Z,14.50
2018-10-16T04:54:08.772Z,14.50
2018-10-16T04:55:13.076Z,14.50
2018-10-16T04:56:17.078Z,14.50
2018-10-16T04:57:21.232Z,14.50
2018-10-16T04:58:25.382Z,14.50
2018-10-16T04:59:29.528Z,14.40
2018-10-16T05:00:33.646Z,14.40
2018-10-16T05:01:37.818Z,14.40
2018-10-16T05:02:42.341Z,14.40
2018-10-16T05:03:46.433Z,14.40
2018-10-16T05:04:50.463Z,14.40
2018-10-16T05:05:54.478Z,14.40
2018-10-16T05:06:58.596Z,14.30
2018-10-16T05:08:02.890Z,14.30
2018-10-16T05:09:08.049Z,14.30
2018-10-16T05:10:12.180Z,14.30
2018-10-16T05:11:16.308Z,14.30
2018-10-16T05:12:20.372Z,14.20
2018-10-16T05:13:24.470Z,14.20
2018-10-16T05:14:28.846Z,14.20
2018-10-16T05:15:33.800Z,14.20
2018-10-16T05:16:37.920Z,14.20
2018-10-16T05:17:42.065Z,14.20
2018-10-16T05:18:46.164Z,14.10
2018-10-16T05:19:50.204Z,14.20
2018-10-16T05:20:54.320Z,14.20
2018-10-16T05:21:58.372Z,14.10
2018-10-16T05:23:02.609Z,14.10
2018-10-16T05:24:07.225Z,14.10
2018-10-16T05:25:11.508Z,14.10
2018-10-16T05:26:15.652Z,14.10
2018-10-16T05:27:19.715Z,14.10
2018-10-16T05:28:23.832Z,14.10
2018-10-16T05:29:27.892Z,14.10
2018-10-16T05:30:32.012Z,14.10
2018-10-16T05:31:36.573Z,14.10
2018-10-16T05:32:40.549Z,14.10
2018-10-16T05:33:44.690Z,14.10
2018-10-16T05:34:48.739Z,14.10
2018-10-16T05:35:52.936Z,14.10
2018-10-16T05:36:57.073Z,14.10
2018-10-16T05:38:01.180Z,14.10
2018-10-16T05:39:07.630Z,14.10
2018-10-16T05:40:12.161Z,14.10
2018-10-16T05:41:16.251Z,14.10
2018-10-16T05:42:20.370Z,14.10
2018-10-16T05:43:24.426Z,14.10
2018-10-16T05:44:28.554Z,14.10
2018-10-16T05:45:34.024Z,14.10
2018-10-16T05:46:38.240Z,14.00
2018-10-16T05:47:43.837Z,14.00
2018-10-16T05:48:47.902Z,14.00
2018-10-16T05:49:51.955Z,14.00
2018-10-16T05:50:56.006Z,14.00
2018-10-16T05:52:00.135Z,14.00
2018-10-16T05:53:04.533Z,14.00
2018-10-16T05:54:08.720Z,14.00
2018-10-16T05:55:13.214Z,14.00
2018-10-16T05:56:17.295Z,14.00
2018-10-16T05:57:21.596Z,14.00
2018-10-16T05:58:25.683Z,13.90
2018-10-16T05:59:29.741Z,14.00
2018-10-16T06:00:46.193Z,14.00
2018-10-16T06:01:50.312Z,13.90
2018-10-16T06:02:54.385Z,13.90
2018-10-16T06:03:58.435Z,13.90
2018-10-16T06:05:02.550Z,13.90
2018-10-16T06:06:06.822Z,13.90
2018-10-16T06:07:11.241Z,13.90
2018-10-16T06:08:15.236Z,13.90
2018-10-16T06:09:19.386Z,14.00
2018-10-16T06:10:23.573Z,13.90
2018-10-16T06:11:27.694Z,13.90
2018-10-16T06:12:31.726Z,14.00
2018-10-16T06:13:35.895Z,14.00
2018-10-16T06:14:39.999Z,14.00
2018-10-16T06:15:44.223Z,14.00
2018-10-16T06:16:48.524Z,14.00
2018-10-16T06:17:52.661Z,14.00
2018-10-16T06:18:56.855Z,14.00
2018-10-16T06:20:01.019Z,14.00
2018-10-16T06:21:05.168Z,14.00
2018-10-16T06:22:09.708Z,14.10
2018-10-16T06:23:13.814Z,14.10
2018-10-16T06:24:18.141Z,14.10
2018-10-16T06:25:22.308Z,14.10
2018-10-16T06:26:26.460Z,14.20
2018-10-16T06:27:30.638Z,14.10
2018-10-16T06:28:34.712Z,14.20
2018-10-16T06:29:38.858Z,14.20
2018-10-16T06:30:42.968Z,14.20
2018-10-16T06:31:47.102Z,14.20
2018-10-16T06:32:51.235Z,14.20
2018-10-16T06:33:55.399Z,14.20
2018-10-16T06:34:59.548Z,14.30
2018-10-16T06:36:03.741Z,14.30
2018-10-16T06:37:07.812Z,14.30
2018-10-16T06:38:12.013Z,14.30
2018-10-16T06:39:16.058Z,14.30
2018-10-16T06:40:26.617Z,14.40
2018-10-16T06:41:30.821Z,14.40
2018-10-16T06:42:34.874Z,14.40
2018-10-16T06:43:39.345Z,14.40
2018-10-16T06:44:43.686Z,14.40
2018-10-16T06:45:48.155Z,14.50
2018-10-16T06:46:52.265Z,14.50
2018-10-16T06:47:56.361Z,14.50
2018-10-16T06:49:01.123Z,14.50
2018-10-16T06:50:06.615Z,14.50
2018-10-16T06:51:10.789Z,14.50
2018-10-16T06:52:14.884Z,14.50
2018-10-16T06:53:19.031Z,14.60
2018-10-16T06:54:23.309Z,14.60
2018-10-16T06:55:27.431Z,14.60
2018-10-16T06:56:31.782Z,14.70
2018-10-16T06:57:35.911Z,14.70
2018-10-16T06:58:40.380Z,14.70
2018-10-16T06:59:44.571Z,14.70
2018-10-16T07:00:49.209Z,14.80
2018-10-16T07:01:53.447Z,14.80
2018-10-16T07:02:57.548Z,14.80
2018-10-16T07:04:01.684Z,14.80
2018-10-16T07:05:06.931Z,14.80
2018-10-16T07:06:11.004Z,14.90
2018-10-16T07:07:15.637Z,14.90
2018-10-16T07:08:19.833Z,14.90
2018-10-16T07:09:24.005Z,15.00
2018-10-16T07:10:28.085Z,14.90
2018-10-16T07:11:32.268Z,15.00
2018-10-16T07:12:37.137Z,15.00
2018-10-16T07:13:41.242Z,15.00
2018-10-16T07:14:47.006Z,15.10
2018-10-16T07:15:51.156Z,15.10
2018-10-16T07:16:55.322Z,15.10
2018-10-16T07:17:59.476Z,15.10
2018-10-16T07:19:03.673Z,15.20
2018-10-16T07:20:08.541Z,15.20
2018-10-16T07:21:12.703Z,15.30
2018-10-16T07:22:16.857Z,15.30
2018-10-16T07:23:21.117Z,15.30
2018-10-16T07:24:25.120Z,15.40
2018-10-16T07:25:29.290Z,15.40
2018-10-16T07:26:33.335Z,15.40
2018-10-16T07:27:37.507Z,15.50
2018-10-16T07:28:41.567Z,15.50
2018-10-16T07:29:45.603Z,15.50
2018-10-16T07:30:49.614Z,15.60
2018-10-16T07:31:53.939Z,15.60
2018-10-16T07:32:58.125Z,15.60
2018-10-16T07:34:02.122Z,15.70
2018-10-16T07:35:07.391Z,15.70
2018-10-16T07:36:11.482Z,15.70
2018-10-16T07:37:15.560Z,15.70
2018-10-16T07:38:19.657Z,15.80
2018-10-16T07:39:23.727Z,15.80
2018-10-16T07:40:27.873Z,15.80
2018-10-16T07:41:31.930Z,15.80
2018-10-16T07:42:36.282Z,15.90
2018-10-16T07:43:40.595Z,15.90
2018-10-16T07:44:44.654Z,15.90
2018-10-16T07:45:48.829Z,16.00
2018-10-16T07:46:52.980Z,16.00
2018-10-16T07:47:57.204Z,16.00
2018-10-16T07:49:01.345Z,16.10
2018-10-16T07:50:07.667Z,16.10
2018-10-16T07:51:11.764Z,16.10
2018-10-16T07:52:15.779Z,16.20
2018-10-16T07:53:19.830Z,16.20
2018-10-16T07:54:23.901Z,16.20
2018-10-16T07:55:28.035Z,16.30
2018-10-16T07:56:32.149Z,16.30
2018-10-16T07:57:36.301Z,16.30
2018-10-16T07:58:40.396Z,16.40
2018-10-16T07:59:44.514Z,16.40
2018-10-16T08:00:48.565Z,16.40
2018-10-16T08:01:52.746Z,16.50
2018-10-16T08:02:56.809Z,16.50
2018-10-16T08:04:00.965Z,16.60
2018-10-16T08:05:05.552Z,16.60
2018-10-16T08:06:09.656Z,16.60
2018-10-16T08:07:13.788Z,16.70
2018-10-16T08:08:17.938Z,16.70
2018-10-16T08:09:22.217Z,16.70
2018-10-16T08:10:26.316Z,16.80
2018-10-16T08:11:30.523Z,16.80
2018-10-16T08:12:34.483Z,16.80
2018-10-16T08:13:38.548Z,16.90
2018-10-16T08:14:42.701Z,16.90
2018-10-16T08:15:46.806Z,17.00
2018-10-16T08:16:51.334Z,17.00
2018-10-16T08:17:55.357Z,17.10
2018-10-16T08:18:59.431Z,17.10
2018-10-16T08:20:03.591Z,17.10
2018-10-16T08:21:07.661Z,17.20
2018-10-16T08:22:11.767Z,17.20
2018-10-16T08:23:15.829Z,17.30
2018-10-16T08:24:20.008Z,17.30
2018-10-16T08:25:24.156Z,17.40
2018-10-16T08:26:28.397Z,17.40
2018-10-16T08:27:32.417Z,17.50
2018-10-16T08:28:36.618Z,17.60
2018-10-16T08:29:40.807Z,17.70
2018-10-16T08:30:44.998Z,17.80
2018-10-16T08:31:49.029Z,17.90
2018-10-16T08:32:53.131Z,18.00
2018-10-16T08:33:57.292Z,18.20
2018-10-16T08:35:01.458Z,18.40
2018-10-16T08:36:05.880Z,18.60
2018-10-16T08:37:11.169Z,18.90
2018-10-16T08:39:19.801Z,19.10
2018-10-16T08:40:23.924Z,19.40
2018-10-16T08:41:34.983Z,19.90
2018-10-16T08:42:49.960Z,20.10
2018-10-16T08:45:07.535Z,20.40
2018-10-16T08:46:23.058Z,20.60
2018-10-16T08:47:38.697Z,21.00
2018-10-16T08:48:54.040Z,21.10
2018-10-16T08:52:12.946Z,21.30
2018-10-16T08:53:17.043Z,21.30
2018-10-16T08:54:22.187Z,21.40
2018-10-16T08:55:26.868Z,21.40
2018-10-16T08:56:31.290Z,21.30
2018-10-16T08:57:35.625Z,21.30
2018-10-16T08:58:39.832Z,21.20
2018-10-16T08:59:43.946Z,21.20
2018-10-16T09:00:48.112Z,21.20
2018-10-16T09:01:52.193Z,21.10
2018-10-16T09:02:56.479Z,21.10
2018-10-16T09:04:01.515Z,21.00
2018-10-16T09:05:06.646Z,21.00
2018-10-16T09:06:10.797Z,21.00
2018-10-16T09:07:14.925Z,21.00
2018-10-16T09:08:19.032Z,20.90
2018-10-16T09:09:23.194Z,20.90
2018-10-16T09:10:28.010Z,20.90
2018-10-16T09:11:32.197Z,20.90
2018-10-16T09:12:36.256Z,20.90
2018-10-16T09:13:40.428Z,20.90
2018-10-16T09:14:44.733Z,20.90
2018-10-16T09:15:49.025Z,21.00
2018-10-16T09:16:53.125Z,21.00
2018-10-16T09:17:57.441Z,21.00
2018-10-16T09:19:01.932Z,21.10
2018-10-16T09:20:06.584Z,21.20
2018-10-16T09:21:11.977Z,21.30
2018-10-16T09:22:16.175Z,21.40
2018-10-16T09:23:20.261Z,21.60
2018-10-16T09:24:24.450Z,21.90
2018-10-16T09:25:28.533Z,22.10
2018-10-16T09:26:32.689Z,22.30
2018-10-16T09:27:37.067Z,22.60
2018-10-16T09:28:41.166Z,22.90
2018-10-16T09:29:45.766Z,23.20
2018-10-16T09:30:49.884Z,23.50
2018-10-16T09:31:54.459Z,23.90
2018-10-16T09:32:58.603Z,24.20
2018-10-16T09:34:02.716Z,24.50
2018-10-16T09:35:08.026Z,24.90
2018-10-16T09:36:12.096Z,25.20
2018-10-16T09:37:16.296Z,25.50
2018-10-16T09:39:23.993Z,26.10
2018-10-16T09:40:28.196Z,26.40
2018-10-16T09:41:32.253Z,26.70
2018-10-16T09:42:36.417Z,27.00
2018-10-16T09:43:40.586Z,27.30
2018-10-16T09:44:44.648Z,27.50
2018-10-16T09:45:48.775Z,27.80
2018-10-16T09:46:52.948Z,28.10
2018-10-16T09:47:57.076Z,28.30
2018-10-16T09:49:01.199Z,28.60
2018-10-16T09:50:06.333Z,28.80
2018-10-16T09:51:10.421Z,29.10
2018-10-16T09:52:14.619Z,29.30
2018-10-16T09:53:18.815Z,29.50
2018-10-16T09:54:22.982Z,29.80
2018-10-16T09:55:27.211Z,30.00
2018-10-16T09:56:31.527Z,30.20
2018-10-16T09:57:35.936Z,30.40
2018-10-16T09:58:40.482Z,30.60
2018-10-16T09:59:44.773Z,30.90
2018-10-16T10:00:54.562Z,31.10
2018-10-16T10:01:58.694Z,31.30
2018-10-16T10:03:02.925Z,31.50
2018-10-16T10:04:07.351Z,31.70
2018-10-16T10:05:11.761Z,31.90
2018-10-16T10:06:15.860Z,32.10
2018-10-16T10:07:20.092Z,32.30
2018-10-16T10:08:24.266Z,32.40
2018-10-16T10:09:28.540Z,32.60
2018-10-16T10:10:32.842Z,32.70
2018-10-16T10:11:37.201Z,32.90
2018-10-16T10:12:41.334Z,33.10
2018-10-16T10:13:45.560Z,33.20
2018-10-16T10:14:49.639Z,33.40
2018-10-16T10:15:53.813Z,33.50
2018-10-16T10:16:57.942Z,33.60
2018-10-16T10:18:02.100Z,33.80
2018-10-16T10:20:10.118Z,34.10
2018-10-16T10:21:14.168Z,34.30
2018-10-16T10:22:18.242Z,34.40
2018-10-16T10:23:22.470Z,34.50
2018-10-16T10:24:26.517Z,34.70
2018-10-16T10:25:30.647Z,34.80
2018-10-16T10:26:35.072Z,35.00
2018-10-16T10:27:39.559Z,35.20
2018-10-16T10:28:50.232Z,35.30
2018-10-16T10:29:54.628Z,35.40
2018-10-16T10:30:58.756Z,35.50
2018-10-16T10:32:02.866Z,35.60
2018-10-16T10:33:06.948Z,35.60
2018-10-16T10:34:11.189Z,35.70
2018-10-16T10:35:15.525Z,35.80
2018-10-16T10:36:19.646Z,35.90
2018-10-16T10:37:23.800Z,36.00
2018-10-16T10:38:27.962Z,36.10
2018-10-16T10:39:32.140Z,36.20
2018-10-16T10:40:36.293Z,36.30
2018-10-16T10:41:41.035Z,36.40
2018-10-16T10:42:45.181Z,36.50
2018-10-16T10:43:49.193Z,36.60
2018-10-16T10:44:53.321Z,36.80
2018-10-16T10:45:57.562Z,36.90
2018-10-16T10:48:05.521Z,37.20
2018-10-16T10:49:09.785Z,37.20
2018-10-16T10:50:14.730Z,37.30
2018-10-16T10:51:18.966Z,37.30
2018-10-16T10:52:22.944Z,37.40
2018-10-16T10:53:27.298Z,37.50
2018-10-16T10:54:31.446Z,37.50
2018-10-16T10:55:35.864Z,37.50
2018-10-16T10:56:40.122Z,37.60
2018-10-16T10:57:44.149Z,37.70
2018-10-16T10:58:48.291Z,37.70
2018-10-16T10:59:52.392Z,37.80
2018-10-16T11:00:56.694Z,37.90
2018-10-16T11:02:00.715Z,38.00
2018-10-16T11:03:05.754Z,38.10
2018-10-16T11:04:10.434Z,38.10
2018-10-16T11:05:14.480Z,38.20
2018-10-16T11:06:18.984Z,38.30
2018-10-16T11:07:23.155Z,38.40
2018-10-16T11:08:27.280Z,38.40
2018-10-16T11:09:31.573Z,38.50
2018-10-16T11:10:35.668Z,38.50
2018-10-16T11:11:39.720Z,38.50
2018-10-16T11:12:44.702Z,38.60
2018-10-16T11:13:48.989Z,38.60
2018-10-16T11:14:53.081Z,38.60
2018-10-16T11:15:57.189Z,38.70
2018-10-16T11:17:01.357Z,38.70
2018-10-16T11:18:05.458Z,38.80
2018-10-16T11:19:09.714Z,38.80
2018-10-16T11:20:14.180Z,38.90
2018-10-16T11:21:18.304Z,38.90
2018-10-16T11:22:22.430Z,38.90
2018-10-16T11:23:26.523Z,39.00
2018-10-16T11:24:30.602Z,39.00
2018-10-16T11:25:34.693Z,39.00
2018-10-16T11:26:38.857Z,39.10
2018-10-16T11:27:42.886Z,39.10
2018-10-16T11:28:47.263Z,39.20
2018-10-16T11:29:51.413Z,39.20
2018-10-16T11:30:55.540Z,39.20
2018-10-16T11:31:59.579Z,39.30
2018-10-16T11:33:03.761Z,39.30
2018-10-16T11:34:08.026Z,39.30
2018-10-16T11:35:13.486Z,39.40
2018-10-16T11:36:17.570Z,39.40
2018-10-16T11:37:21.723Z,39.50
2018-10-16T11:38:25.920Z,39.50
2018-10-16T11:39:30.030Z,39.50
2018-10-16T11:40:34.332Z,39.60
2018-10-16T11:41:38.589Z,39.70
2018-10-16T11:42:42.951Z,39.70
2018-10-16T11:43:47.174Z,39.80
2018-10-16T11:44:51.304Z,39.80
2018-10-16T11:45:56.478Z,39.80
2018-10-16T11:47:00.574Z,39.90
2018-10-16T11:48:04.936Z,39.90
2018-10-16T11:49:09.490Z,40.00
2018-10-16T11:50:13.658Z,40.10
2018-10-16T11:51:17.735Z,40.10
2018-10-16T11:52:22.152Z,40.20
2018-10-16T11:53:26.293Z,40.30
2018-10-16T11:54:30.448Z,40.40
2018-10-16T11:55:34.588Z,40.50
2018-10-16T11:56:39.071Z,40.50
2018-10-16T11:57:43.173Z,40.60
2018-10-16T11:58:47.525Z,40.70
2018-10-16T11:59:51.580Z,40.60
2018-10-16T12:00:55.736Z,40.70
2018-10-16T12:01:59.870Z,40.70
2018-10-16T12:03:03.999Z,40.80
2018-10-16T12:04:08.149Z,40.90
2018-10-16T12:05:12.553Z,40.90
2018-10-16T12:06:16.676Z,40.90
2018-10-16T12:07:20.843Z,41.00
2018-10-16T12:08:24.917Z,41.00
2018-10-16T12:09:29.463Z,41.10
2018-10-16T12:10:33.960Z,41.20
2018-10-16T12:11:38.826Z,41.20
2018-10-16T12:12:43.139Z,41.20
2018-10-16T12:13:47.286Z,41.30
2018-10-16T12:14:51.322Z,41.30
2018-10-16T12:15:55.505Z,41.30
2018-10-16T12:17:04.447Z,41.40
2018-10-16T12:18:15.918Z,41.50
2018-10-16T12:19:41.709Z,41.50
2018-10-16T12:20:51.482Z,41.60
2018-10-16T12:21:55.571Z,41.70
2018-10-16T12:22:59.692Z,41.80
2018-10-16T12:24:03.895Z,41.90
2018-10-16T12:25:08.177Z,41.90
2018-10-16T12:26:12.225Z,42.00
2018-10-16T12:27:16.217Z,42.00
2018-10-16T12:28:20.382Z,42.00
2018-10-16T12:29:24.470Z,42.00
2018-10-16T12:30:28.736Z,42.00
2018-10-16T12:31:32.970Z,42.00
2018-10-16T12:32:37.263Z,42.00
2018-10-16T12:33:41.368Z,42.00
2018-10-16T12:34:45.440Z,41.90
2018-10-16T12:35:49.769Z,42.00
2018-10-16T12:36:55.784Z,42.00
2018-10-16T12:38:06.762Z,42.00
2018-10-16T12:39:10.921Z,42.00
2018-10-16T12:40:15.154Z,42.10
2018-10-16T12:41:19.488Z,42.20
2018-10-16T12:42:23.722Z,42.20
2018-10-16T12:43:28.201Z,42.20
2018-10-16T12:44:32.360Z,42.30
2018-10-16T12:45:36.401Z,42.30
2018-10-16T12:46:40.969Z,42.40
2018-10-16T12:47:45.533Z,42.40
2018-10-16T12:48:49.660Z,42.50
2018-10-16T12:49:53.802Z,42.60
2018-10-16T12:50:58.022Z,42.60
2018-10-16T12:52:02.184Z,42.70
2018-10-16T12:53:06.819Z,42.70
2018-10-16T12:54:11.051Z,42.80
2018-10-16T12:55:15.269Z,42.80
2018-10-16T12:56:19.422Z,42.90
2018-10-16T12:57:23.585Z,42.90
2018-10-16T12:58:28.038Z,42.90
2018-10-16T12:59:32.198Z,42.90
2018-10-16T13:00:36.414Z,42.90
2018-10-16T13:01:40.601Z,42.90
2018-10-16T13:02:44.745Z,42.80
2018-10-16T13:03:48.917Z,42.80
2018-10-16T13:04:53.042Z,42.90
2018-10-16T13:05:57.122Z,42.80
2018-10-16T13:07:09.351Z,42.80
2018-10-16T13:08:13.576Z,42.80
2018-10-16T13:09:17.681Z,42.80
2018-10-16T13:10:21.836Z,42.80
2018-10-16T13:11:25.910Z,42.80
2018-10-16T13:12:30.037Z,42.80
2018-10-16T13:13:34.148Z,42.80
2018-10-16T13:14:38.309Z,42.90
2018-10-16T13:15:42.418Z,42.90
2018-10-16T13:16:46.659Z,43.00
2018-10-16T13:17:50.728Z,43.00
2018-10-16T13:18:54.866Z,43.00
2018-10-16T13:19:59.074Z,43.00
2018-10-16T13:21:03.200Z,43.10
2018-10-16T13:22:07.255Z,43.10
2018-10-16T13:23:11.564Z,43.10
2018-10-16T13:24:15.598Z,43.20
2018-10-16T13:25:19.754Z,43.40
2018-10-16T13:26:23.947Z,43.40
2018-10-16T13:27:28.144Z,43.40
2018-10-16T13:28:32.263Z,43.50
2018-10-16T13:29:36.532Z,43.50
2018-10-16T13:30:40.514Z,43.50
2018-10-16T13:31:44.558Z,43.60
2018-10-16T13:32:49.718Z,43.60
2018-10-16T13:33:53.862Z,43.60
2018-10-16T13:34:57.924Z,43.60
2018-10-16T13:36:02.111Z,43.60
2018-10-16T13:37:06.273Z,43.50
2018-10-16T13:38:10.500Z,43.60
2018-10-16T13:39:14.529Z,43.50
2018-10-16T13:40:18.590Z,43.40
2018-10-16T13:41:22.777Z,43.30
2018-10-16T13:42:26.893Z,43.20
2018-10-16T13:43:30.950Z,43.00
2018-10-16T13:44:35.128Z,42.90
2018-10-16T13:45:39.209Z,42.80
2018-10-16T13:46:43.310Z,42.60
2018-10-16T13:47:47.854Z,42.50
2018-10-16T13:48:51.942Z,42.40
2018-10-16T13:49:56.288Z,42.20
2018-10-16T13:51:00.481Z,42.10
2018-10-16T13:52:04.683Z,42.00
2018-10-16T13:53:08.782Z,41.80
2018-10-16T13:54:12.950Z,41.70
2018-10-16T13:55:17.109Z,41.50
2018-10-16T13:56:21.219Z,41.40
2018-10-16T13:57:25.376Z,41.20
2018-10-16T13:58:29.472Z,41.10